createdAt,value
2023-03-12T00:00:09.110Z,0.90
2023-03-12T00:02:36.523Z,0.90
2023-03-12T00:05:04.524Z,1.00
2023-03-12T00:07:31.813Z,0.90
2023-03-12T00:09:58.896Z,1.00
2023-03-12T00:12:26.105Z,0.85
2023-03-12T00:14:53.346Z,1.13
2023-03-12T00:17:20.466Z,1.20
2023-03-12T00:19:53.231Z,1.10
2023-03-12T00:22:23.173Z,1.27
2023-03-12T00:24:55.324Z,1.20
2023-03-12T00:27:23.758Z,1.50
2023-03-12T00:29:50.879Z,1.00
2023-03-12T00:32:18.331Z,1.00
2023-03-12T00:34:53.976Z,1.13
2023-03-12T00:37:21.203Z,1.13
2023-03-12T00:39:48.909Z,1.00
2023-03-12T00:42:16.100Z,1.40
2023-03-12T00:44:44.324Z,1.42
2023-03-12T00:47:12.820Z,1.05
2023-03-12T00:49:40.477Z,1.23
2023-03-12T00:52:08.034Z,1.30
2023-03-12T00:54:35.158Z,1.15
2023-03-12T00:57:02.451Z,1.40
2023-03-12T00:59:29.620Z,1.25
2023-03-12T01:01:57.699Z,1.50
2023-03-12T01:04:25.245Z,1.38
2023-03-12T01:06:52.370Z,1.45
2023-03-12T01:09:19.818Z,1.23
2023-03-12T01:11:46.881Z,1.40
2023-03-12T01:14:13.997Z,1.52
2023-03-12T01:16:41.121Z,1.42
2023-03-12T01:19:08.278Z,1.80
2023-03-12T01:21:35.402Z,1.73
2023-03-12T01:24:02.588Z,1.33
2023-03-12T01:26:29.704Z,1.60
2023-03-12T01:28:56.897Z,1.40
2023-03-12T01:31:25.774Z,1.30
2023-03-12T01:33:53.969Z,1.48
2023-03-12T01:36:24.994Z,1.20
2023-03-12T01:38:58.155Z,1.30
2023-03-12T01:41:28.872Z,1.10
2023-03-12T01:43:56.199Z,1.30
2023-03-12T01:46:38.984Z,1.20
2023-03-12T01:49:32.955Z,1.20
2023-03-12T01:52:11.330Z,1.25
2023-03-12T01:55:02.920Z,1.40
2023-03-12T01:57:53.297Z,1.10
2023-03-12T02:00:25.467Z,1.30
2023-03-12T02:03:00.030Z,1.13
2023-03-12T02:05:43.828Z,1.23
2023-03-12T02:08:13.479Z,1.25
2023-03-12T02:10:40.881Z,1.38
2023-03-12T02:13:08.327Z,1.38
2023-03-12T02:15:37.038Z,1.20
2023-03-12T02:18:09.365Z,1.45
2023-03-12T02:20:57.144Z,1.35
2023-03-12T02:23:32.473Z,1.60
2023-03-12T02:26:01.041Z,1.15
2023-03-12T02:28:29.977Z,1.58
2023-03-12T02:31:04.438Z,1.30
2023-03-12T02:33:31.510Z,1.30
2023-03-12T02:35:58.748Z,1.40
2023-03-12T02:38:50.196Z,1.08
2023-03-12T02:41:24.858Z,1.40
2023-03-12T02:44:16.458Z,1.20
2023-03-12T02:49:21.236Z,1.15
2023-03-12T02:51:49.548Z,1.15
2023-03-12T02:54:19.883Z,1.00
2023-03-12T02:56:47.552Z,1.02
2023-03-12T02:59:16.222Z,1.10
2023-03-12T03:01:43.896Z,1.13
2023-03-12T03:04:11.983Z,1.10
2023-03-12T03:06:42.113Z,1.08
2023-03-12T03:09:09.226Z,1.15
2023-03-12T03:11:36.713Z,1.00
2023-03-12T03:14:04.456Z,1.00
2023-03-12T03:16:31.724Z,1.00
2023-03-12T03:18:59.240Z,0.93
2023-03-12T03:21:26.364Z,1.08
2023-03-12T03:23:53.535Z,1.00
2023-03-12T03:26:23.473Z,1.05
2023-03-12T03:28:51.168Z,1.25
2023-03-12T03:31:19.056Z,0.95
2023-03-12T03:33:46.366Z,1.23
2023-03-12T03:36:15.020Z,1.00
2023-03-12T03:38:42.862Z,1.10
2023-03-12T03:41:09.912Z,1.20
2023-03-12T03:43:37.015Z,1.23
2023-03-12T03:46:06.382Z,1.30
2023-03-12T03:48:33.642Z,1.10
2023-03-12T03:51:07.077Z,1.23
2023-03-12T03:53:34.491Z,1.05
2023-03-12T03:56:13.239Z,1.20
2023-03-12T03:58:40.437Z,1.30
2023-03-12T04:01:08.160Z,1.35
2023-03-12T04:03:35.947Z,1.48
2023-03-12T04:06:05.600Z,1.00
2023-03-12T04:08:35.739Z,1.20
2023-03-12T04:11:16.183Z,1.55
2023-03-12T04:13:44.242Z,1.20
2023-03-12T04:16:11.901Z,1.40
2023-03-12T04:18:40.248Z,1.20
2023-03-12T04:21:10.242Z,1.40
2023-03-12T04:23:37.951Z,1.13
2023-03-12T04:26:06.696Z,1.00
2023-03-12T04:28:35.360Z,1.30
2023-03-12T04:31:05.805Z,1.20
2023-03-12T04:33:36.823Z,1.30
2023-03-12T04:36:04.881Z,1.05
2023-03-12T04:38:32.400Z,1.25
2023-03-12T04:41:08.403Z,0.95
2023-03-12T04:43:36.347Z,1.10
2023-03-12T04:46:04.636Z,1.25
2023-03-12T04:48:31.968Z,1.27
2023-03-12T04:50:59.038Z,0.98
2023-03-12T04:53:26.570Z,1.13
2023-03-12T04:55:53.968Z,1.10
2023-03-12T04:58:22.461Z,1.27
2023-03-12T05:00:50.775Z,1.20
2023-03-12T05:03:18.732Z,1.30
2023-03-12T05:05:46.046Z,1.27
2023-03-12T05:08:13.170Z,1.35
2023-03-12T05:10:40.589Z,1.73
2023-03-12T05:13:21.306Z,1.90
2023-03-12T05:15:50.980Z,1.90
2023-03-12T05:18:20.345Z,1.70
2023-03-12T05:20:48.498Z,4.00
2023-03-12T05:23:15.616Z,4.68
2023-03-12T05:25:42.731Z,4.13
2023-03-12T05:28:09.892Z,3.70
2023-03-12T05:30:37.333Z,3.05
2023-03-12T05:33:04.554Z,2.90
2023-03-12T05:35:31.745Z,3.10
2023-03-12T05:37:59.000Z,2.75
2023-03-12T05:40:26.139Z,2.83
2023-03-12T05:42:53.870Z,3.00
2023-03-12T05:45:20.990Z,2.97
2023-03-12T05:47:48.129Z,2.58
2023-03-12T05:50:16.490Z,2.00
2023-03-12T05:52:43.526Z,2.13
2023-03-12T05:55:11.413Z,1.63
2023-03-12T05:57:38.490Z,1.92
2023-03-12T06:00:06.522Z,1.95
2023-03-12T06:02:33.714Z,1.80
2023-03-12T06:05:00.999Z,1.83
2023-03-12T06:07:28.091Z,1.88
2023-03-12T06:09:55.278Z,1.73
2023-03-12T06:12:22.399Z,1.80
2023-03-12T06:14:52.200Z,1.98
2023-03-12T06:17:19.661Z,1.50
2023-03-12T06:19:47.858Z,1.40
2023-03-12T06:22:14.969Z,1.58
2023-03-12T06:24:42.722Z,1.38
2023-03-12T06:27:09.815Z,1.35
2023-03-12T06:29:36.891Z,1.30
2023-03-12T06:32:04.228Z,1.33
2023-03-12T06:34:31.375Z,1.70
2023-03-12T06:36:58.557Z,1.80
2023-03-12T06:39:25.864Z,2.72
2023-03-12T06:41:53.036Z,3.30
2023-03-12T06:44:20.176Z,3.63
2023-03-12T06:46:47.454Z,4.90
2023-03-12T06:49:15.205Z,4.28
2023-03-12T06:51:42.430Z,4.07
2023-03-12T06:54:09.491Z,3.65
2023-03-12T06:56:36.613Z,2.97
2023-03-12T06:59:04.703Z,2.72
2023-03-12T07:01:32.039Z,2.33
2023-03-12T07:03:59.078Z,1.80
2023-03-12T07:06:26.458Z,1.95
2023-03-12T07:08:53.672Z,1.90
2023-03-12T07:11:21.047Z,1.58
2023-03-12T07:13:48.205Z,1.50
2023-03-12T07:16:15.784Z,1.80
2023-03-12T07:18:43.005Z,1.98
2023-03-12T07:21:10.093Z,1.70
2023-03-12T07:23:37.286Z,1.52
2023-03-12T07:26:06.100Z,1.58
2023-03-12T07:28:33.437Z,1.40
2023-03-12T07:31:05.461Z,2.13
2023-03-12T07:33:33.353Z,1.73
2023-03-12T07:36:00.851Z,1.60
2023-03-12T07:38:28.672Z,1.70
2023-03-12T07:42:55.843Z,2.35
2023-03-12T07:45:24.016Z,8.80
2023-03-12T07:47:51.865Z,5.35
2023-03-12T07:50:19.956Z,2.33
2023-03-12T07:52:48.042Z,1.80
2023-03-12T07:55:16.526Z,1.73
2023-03-12T07:57:44.545Z,1.75
2023-03-12T08:00:12.924Z,1.92
2023-03-12T08:02:40.524Z,1.83
2023-03-12T08:05:08.495Z,1.70
2023-03-12T08:07:36.363Z,1.60
2023-03-12T08:10:07.595Z,1.70
2023-03-12T08:12:35.080Z,1.70
2023-03-12T08:15:02.149Z,1.63
2023-03-12T08:17:29.240Z,1.50
2023-03-12T08:19:56.568Z,1.15
2023-03-12T08:22:23.684Z,1.50
2023-03-12T08:24:51.083Z,1.70
2023-03-12T08:27:18.291Z,1.45
2023-03-12T08:29:45.977Z,1.45
2023-03-12T08:32:14.281Z,1.70
2023-03-12T08:34:41.531Z,1.67
2023-03-12T08:37:09.053Z,1.70
2023-03-12T08:39:36.852Z,1.92
2023-03-12T08:42:05.757Z,1.42
2023-03-12T08:44:32.853Z,1.63
2023-03-12T08:47:00.155Z,1.42
2023-03-12T08:49:27.423Z,1.40
2023-03-12T08:51:54.533Z,1.70
2023-03-12T08:54:22.091Z,2.03
2023-03-12T08:56:53.556Z,1.60
2023-03-12T08:59:22.385Z,1.85
2023-03-12T09:01:50.212Z,1.90
2023-03-12T09:04:17.904Z,2.20
2023-03-12T09:06:45.090Z,2.00
2023-03-12T09:09:12.824Z,2.15
2023-03-12T09:11:41.039Z,2.50
2023-03-12T09:14:46.379Z,2.33
2023-03-12T09:16:55.950Z,2.28
2023-03-12T09:19:23.364Z,2.60
2023-03-12T09:21:50.532Z,2.33
2023-03-12T09:24:17.788Z,2.75
2023-03-12T09:26:45.067Z,2.53
2023-03-12T09:29:12.300Z,2.47
2023-03-12T09:31:39.603Z,2.90
2023-03-12T09:34:06.869Z,2.47
2023-03-12T09:36:34.353Z,2.55
2023-03-12T09:39:02.482Z,2.47
2023-03-12T09:41:34.506Z,2.45
2023-03-12T09:44:22.404Z,2.22
2023-03-12T09:46:53.926Z,2.13
2023-03-12T09:49:46.747Z,1.83
2023-03-12T09:52:40.629Z,2.15
2023-03-12T09:55:17.080Z,2.33
2023-03-12T09:57:46.795Z,2.10
2023-03-12T10:00:18.990Z,1.80
2023-03-12T10:03:11.045Z,1.63
2023-03-12T10:06:01.642Z,1.75
2023-03-12T10:09:08.769Z,1.67
2023-03-12T10:11:57.193Z,1.40
2023-03-12T10:14:37.375Z,1.30
2023-03-12T10:17:39.008Z,1.73
2023-03-12T10:20:51.752Z,1.45
2023-03-12T10:23:24.742Z,1.48
2023-03-12T10:26:06.209Z,1.40
2023-03-12T10:28:56.319Z,1.02
2023-03-12T10:31:29.970Z,1.30
2023-03-12T10:34:00.155Z,1.20
2023-03-12T10:36:39.806Z,1.33
2023-03-12T10:39:19.512Z,1.40
2023-03-12T10:41:49.196Z,1.27
2023-03-12T10:44:24.233Z,1.40
2023-03-12T10:47:12.432Z,1.25
2023-03-12T10:49:39.735Z,1.38
2023-03-12T10:52:17.694Z,1.08
2023-03-12T10:54:51.805Z,1.35
2023-03-12T10:57:20.982Z,1.38
2023-03-12T10:59:50.200Z,1.23
2023-03-12T11:02:58.909Z,1.30
2023-03-12T11:05:48.776Z,1.75
2023-03-12T11:08:29.419Z,1.80
2023-03-12T11:10:59.572Z,1.80
2023-03-12T11:13:42.049Z,1.83
2023-03-12T11:16:18.113Z,1.80
2023-03-12T11:19:04.199Z,1.67
2023-03-12T11:21:38.295Z,1.80
2023-03-12T11:24:14.740Z,1.70
2023-03-12T11:27:06.289Z,1.35
2023-03-12T11:29:40.356Z,1.60
2023-03-12T11:32:37.969Z,1.70
2023-03-12T11:35:11.627Z,1.58
2023-03-12T11:38:19.938Z,1.40
2023-03-12T11:41:41.658Z,1.45
2023-03-12T11:44:28.974Z,1.52
2023-03-12T11:47:40.239Z,1.75
2023-03-12T11:50:45.130Z,1.50
2023-03-12T11:53:45.802Z,1.70
2023-03-12T11:56:28.152Z,1.85
2023-03-12T11:59:16.846Z,1.95
2023-03-12T12:02:04.999Z,1.90
2023-03-12T12:05:10.536Z,1.90
2023-03-12T12:08:01.440Z,1.85
2023-03-12T12:10:58.123Z,2.67
2023-03-12T12:13:42.726Z,2.85
2023-03-12T12:16:19.155Z,3.10
2023-03-12T12:19:20.602Z,3.20
2023-03-12T12:22:08.897Z,2.47
2023-03-12T12:24:51.554Z,2.85
2023-03-12T12:27:26.959Z,2.97
2023-03-12T12:30:33.629Z,3.03
2023-03-12T12:33:27.638Z,2.42
2023-03-12T12:35:54.880Z,2.67
2023-03-12T12:38:33.659Z,2.58
2023-03-12T12:41:08.417Z,2.45
2023-03-12T12:43:48.467Z,2.40
2023-03-12T12:46:18.394Z,2.03
2023-03-12T12:49:01.833Z,2.17
2023-03-12T12:51:38.332Z,1.88
2023-03-12T12:54:37.498Z,1.75
2023-03-12T12:57:13.884Z,1.85
2023-03-12T13:00:11.069Z,1.88
2023-03-12T13:02:42.448Z,1.52
2023-03-12T13:05:55.490Z,1.70
2023-03-12T13:08:42.314Z,1.40
2023-03-12T13:11:20.277Z,1.38
2023-03-12T13:14:02.902Z,1.70
2023-03-12T13:16:45.343Z,1.48
2023-03-12T13:19:15.381Z,1.45
2023-03-12T13:22:13.122Z,1.92
2023-03-12T13:25:01.874Z,1.60
2023-03-12T13:27:43.331Z,1.20
2023-03-12T13:30:35.419Z,1.02
2023-03-12T13:35:39.438Z,0.80
2023-03-12T13:38:39.205Z,0.80
2023-03-12T13:41:09.024Z,0.90
2023-03-12T13:43:38.789Z,0.70
2023-03-12T13:46:16.831Z,1.00
2023-03-12T13:48:48.743Z,1.73
2023-03-12T13:53:58.222Z,1.00
2023-03-12T13:56:31.968Z,1.00
2023-03-12T13:59:06.578Z,1.20
2023-03-12T14:01:42.104Z,2.05
2023-03-12T14:04:19.182Z,1.48
2023-03-12T14:06:59.350Z,1.05
2023-03-12T14:09:41.279Z,0.90
2023-03-12T14:15:44.993Z,1.00
2023-03-12T14:18:35.102Z,1.08
2023-03-12T14:21:08.847Z,0.88
2023-03-12T14:23:41.614Z,0.70
2023-03-12T14:26:21.248Z,0.90
2023-03-12T14:28:58.317Z,0.73
2023-03-12T14:31:26.912Z,0.80
2023-03-12T14:33:57.726Z,0.77
2023-03-12T14:36:32.645Z,0.75
2023-03-12T14:39:27.696Z,0.98
2023-03-12T14:42:06.899Z,0.85
2023-03-12T14:44:37.716Z,0.82
2023-03-12T14:47:11.687Z,1.05
2023-03-12T14:49:47.264Z,0.75
2023-03-12T14:52:25.312Z,0.73
2023-03-12T14:54:58.731Z,0.75
2023-03-12T14:57:26.243Z,1.10
2023-03-12T15:00:00.331Z,1.08
2023-03-12T15:02:31.262Z,1.17
2023-03-12T15:05:01.797Z,1.13
2023-03-12T15:07:39.567Z,1.20
2023-03-12T15:10:18.021Z,1.20
2023-03-12T15:12:46.478Z,1.20
2023-03-12T15:15:42.799Z,1.00
2023-03-12T15:18:23.086Z,1.00
2023-03-12T15:20:53.412Z,1.33
2023-03-12T15:23:24.106Z,1.35
2023-03-12T15:26:16.548Z,1.30
2023-03-12T15:28:44.125Z,1.52
2023-03-12T15:31:17.549Z,1.48
2023-03-12T15:33:45.171Z,1.50
2023-03-12T15:36:15.532Z,1.70
2023-03-12T15:39:28.611Z,1.50
2023-03-12T15:42:10.455Z,1.10
2023-03-12T15:45:03.378Z,1.13
2023-03-12T15:47:34.145Z,1.33
2023-03-12T15:50:37.126Z,1.15
2023-03-12T15:53:16.659Z,1.10
2023-03-12T15:56:03.731Z,1.13
2023-03-12T15:58:40.234Z,0.80
2023-03-12T16:01:15.367Z,0.90
2023-03-12T16:03:45.656Z,1.13
2023-03-12T16:06:26.201Z,1.00
2023-03-12T16:09:02.305Z,0.90
2023-03-12T16:11:33.290Z,0.82
2023-03-12T16:14:08.808Z,0.90
2023-03-12T16:16:36.095Z,0.82
2023-03-12T16:19:03.491Z,0.88
2023-03-12T16:21:30.644Z,1.00
2023-03-12T16:23:57.729Z,0.90
2023-03-12T16:26:24.915Z,1.05
2023-03-12T16:28:52.031Z,2.70
2023-03-12T16:31:19.581Z,2.08
2023-03-12T16:33:47.605Z,1.83
2023-03-12T16:36:17.506Z,1.98
2023-03-12T16:38:46.558Z,1.70
2023-03-12T16:41:18.476Z,1.50
2023-03-12T16:43:50.644Z,1.80
2023-03-12T16:46:21.611Z,2.83
2023-03-12T16:48:56.272Z,3.78
2023-03-12T16:51:23.936Z,3.45
2023-03-12T16:54:05.444Z,3.50
2023-03-12T16:56:36.230Z,2.60
2023-03-12T16:59:19.400Z,2.28
2023-03-12T17:01:46.520Z,2.00
2023-03-12T17:04:13.738Z,1.95
2023-03-12T17:06:41.468Z,2.30
2023-03-12T17:09:08.958Z,2.15
2023-03-12T17:11:38.063Z,2.17
2023-03-12T17:14:28.676Z,1.98
2023-03-12T17:16:55.753Z,1.38
2023-03-12T17:19:22.986Z,2.33
2023-03-12T17:21:50.422Z,2.10
2023-03-12T17:24:22.771Z,2.72
2023-03-12T17:26:52.037Z,3.45
2023-03-12T17:29:19.198Z,2.58
2023-03-12T17:31:46.324Z,2.42
2023-03-12T17:34:13.552Z,2.30
2023-03-12T17:36:41.207Z,2.40
2023-03-12T17:39:09.062Z,2.53
2023-03-12T17:41:36.389Z,2.22
2023-03-12T17:44:03.966Z,2.58
2023-03-12T17:46:31.830Z,2.20
2023-03-12T17:48:59.519Z,1.90
2023-03-12T17:51:26.876Z,1.70
2023-03-12T17:53:54.344Z,1.63
2023-03-12T17:56:21.630Z,1.52
2023-03-12T17:58:48.745Z,1.55
2023-03-12T18:01:16.998Z,1.50
2023-03-12T18:03:44.595Z,1.40
2023-03-12T18:06:12.558Z,1.88
2023-03-12T18:08:39.713Z,1.95
2023-03-12T18:11:06.889Z,2.50
2023-03-12T18:13:34.068Z,2.28
2023-03-12T18:16:01.247Z,2.40
2023-03-12T18:18:28.864Z,2.63
2023-03-12T18:20:56.350Z,2.45
2023-03-12T18:23:25.284Z,2.38
2023-03-12T18:25:52.639Z,2.38
2023-03-12T18:28:20.922Z,2.38
2023-03-12T18:30:48.749Z,3.10
2023-03-12T18:33:16.496Z,2.60
2023-03-12T18:35:44.607Z,2.65
2023-03-12T18:38:12.255Z,2.90
2023-03-12T18:40:39.903Z,3.22
2023-03-12T18:43:07.047Z,3.25
2023-03-12T18:45:35.395Z,3.25
2023-03-12T18:48:02.499Z,3.42
2023-03-12T18:50:29.663Z,3.10
2023-03-12T18:52:56.906Z,2.90
2023-03-12T18:55:24.062Z,3.00
2023-03-12T18:57:52.103Z,2.90
2023-03-12T19:00:19.995Z,3.05
2023-03-12T19:02:48.478Z,3.92
2023-03-12T19:05:16.369Z,4.35
2023-03-12T19:07:43.964Z,4.88
2023-03-12T19:10:12.575Z,4.63
2023-03-12T19:12:51.472Z,4.53
2023-03-12T19:15:21.453Z,4.95
2023-03-12T19:17:48.622Z,4.38
2023-03-12T19:20:16.118Z,4.32
2023-03-12T19:22:43.254Z,4.20
2023-03-12T19:25:10.559Z,4.00
2023-03-12T19:27:37.672Z,3.75
2023-03-12T19:30:05.607Z,4.15
2023-03-12T19:32:42.265Z,3.65
2023-03-12T19:35:13.241Z,4.60
2023-03-12T19:37:41.070Z,4.80
2023-03-12T19:40:10.784Z,4.97
2023-03-12T19:42:38.635Z,5.22
2023-03-12T19:45:06.597Z,5.70
2023-03-12T19:47:33.944Z,7.55
2023-03-12T19:50:03.296Z,8.95
2023-03-12T19:52:30.521Z,7.63
2023-03-12T19:55:04.799Z,8.82
2023-03-12T19:57:34.091Z,6.45
2023-03-12T20:00:01.304Z,4.95
2023-03-12T20:02:29.089Z,4.28
2023-03-12T20:04:56.270Z,2.90
2023-03-12T20:07:23.444Z,2.50
2023-03-12T20:09:51.831Z,2.42
2023-03-12T20:12:18.901Z,2.20
2023-03-12T20:14:46.805Z,2.92
2023-03-12T20:17:14.145Z,2.83
2023-03-12T20:19:42.598Z,2.88
2023-03-12T20:22:09.737Z,2.35
2023-03-12T20:24:36.754Z,2.10
2023-03-12T20:27:05.006Z,2.05
2023-03-12T20:29:32.131Z,2.38
2023-03-12T20:31:59.335Z,2.38
2023-03-12T20:34:26.467Z,3.00
2023-03-12T20:36:53.522Z,3.15
2023-03-12T20:39:20.822Z,3.50
2023-03-12T20:41:50.029Z,3.00
2023-03-12T20:44:17.193Z,2.33
2023-03-12T20:46:44.588Z,2.30
2023-03-12T20:49:11.637Z,2.20
2023-03-12T20:51:38.810Z,2.10
2023-03-12T20:54:05.905Z,1.73
2023-03-12T20:56:32.932Z,1.90
2023-03-12T20:59:00.026Z,1.95
2023-03-12T21:01:27.791Z,1.63
2023-03-12T21:03:58.749Z,1.85
2023-03-12T21:06:26.479Z,1.73
2023-03-12T21:08:56.668Z,1.63
2023-03-12T21:11:24.820Z,1.70
2023-03-12T21:13:51.953Z,1.75
2023-03-12T21:16:19.118Z,1.88
2023-03-12T21:18:46.493Z,2.90
2023-03-12T21:21:13.818Z,2.58
2023-03-12T21:23:41.003Z,2.90
2023-03-12T21:26:09.490Z,2.15
2023-03-12T21:28:37.096Z,2.00
2023-03-12T21:31:13.517Z,2.03
2023-03-12T21:33:41.215Z,1.65
2023-03-12T21:36:11.828Z,1.83
2023-03-12T21:38:40.629Z,1.50
2023-03-12T21:41:14.988Z,1.27
2023-03-12T21:43:43.312Z,1.48
2023-03-12T21:46:17.105Z,1.52
2023-03-12T21:48:46.290Z,1.40
2023-03-12T21:51:17.210Z,1.85
2023-03-12T21:53:44.591Z,2.75
2023-03-12T21:56:12.263Z,2.70
2023-03-12T21:58:39.414Z,4.55
2023-03-12T22:01:13.470Z,5.18
2023-03-12T22:03:43.493Z,5.95
2023-03-12T22:06:12.289Z,5.13
2023-03-12T22:08:40.159Z,4.30
2023-03-12T22:11:08.533Z,4.05
2023-03-12T22:13:35.947Z,3.22
2023-03-12T22:16:08.194Z,2.53
2023-03-12T22:18:39.714Z,2.22
2023-03-12T22:21:08.011Z,2.13
2023-03-12T22:23:37.004Z,2.03
2023-03-12T22:26:06.227Z,2.30
2023-03-12T22:28:33.613Z,2.00
2023-03-12T22:31:03.367Z,2.00
2023-03-12T22:33:30.599Z,1.67
2023-03-12T22:35:58.187Z,1.65
2023-03-12T22:38:26.021Z,1.50
2023-03-12T22:40:55.680Z,1.20
2023-03-12T22:43:25.685Z,1.50
2023-03-12T22:45:56.088Z,1.30
2023-03-12T22:48:23.252Z,1.50
2023-03-12T22:50:54.713Z,1.40
2023-03-12T22:53:21.939Z,1.63
2023-03-12T22:56:00.748Z,1.40
2023-03-12T22:58:28.942Z,1.48
2023-03-12T23:01:10.663Z,1.27
2023-03-12T23:03:40.064Z,2.50
2023-03-12T23:06:19.775Z,2.13
2023-03-12T23:08:48.058Z,1.85
2023-03-12T23:11:16.743Z,2.15
2023-03-12T23:13:46.436Z,2.03
2023-03-12T23:16:22.952Z,2.10
2023-03-12T23:18:50.952Z,2.47
2023-03-12T23:21:23.974Z,2.20
2023-03-12T23:23:51.721Z,2.20
2023-03-12T23:26:23.803Z,1.50
2023-03-12T23:28:53.512Z,1.65
2023-03-12T23:31:21.510Z,1.60
2023-03-12T23:33:48.942Z,1.50
2023-03-12T23:36:19.475Z,1.10
2023-03-12T23:38:47.845Z,1.30
2023-03-12T23:41:27.147Z,1.10
2023-03-12T23:43:54.311Z,1.10
2023-03-12T23:46:21.746Z,1.50
2023-03-12T23:48:49.531Z,1.10
2023-03-12T23:51:19.102Z,1.02
2023-03-12T23:53:49.608Z,1.00
2023-03-12T23:56:20.414Z,1.17
2023-03-12T23:58:49.615Z,0.80
